Search METAR Data

METAR Data for ENSG:

ENSG 211950Z 00000KT 9999 FEW060 BKN137 15/09 Q1011 RMK WIND 3806FT VRB01KT